sensor_id;sensor_type;location;lat;lon;timestamp;temperature;humidity
16627;DHT22;8427;52.204;7.202;2024-03-17T00:00:27;3.00;91.00
16627;DHT22;8427;52.204;7.202;2024-03-17T00:02:54;2.90;90.90
16627;DHT22;8427;52.204;7.202;2024-03-17T00:05:20;2.90;91.00
16627;DHT22;8427;52.204;7.202;2024-03-17T00:07:49;2.80;90.80
16627;DHT22;8427;52.204;7.202;2024-03-17T00:10:15;2.90;91.00
16627;DHT22;8427;52.204;7.202;2024-03-17T00:12:42;2.90;90.90
16627;DHT22;8427;52.204;7.202;2024-03-17T00:15:08;2.90;91.00
16627;DHT22;8427;52.204;7.202;2024-03-17T00:17:36;3.00;91.10
16627;DHT22;8427;52.204;7.202;2024-03-17T00:20:02;2.90;91.00
16627;DHT22;8427;52.204;7.202;2024-03-17T00:22:29;2.70;91.20
16627;DHT22;8427;52.204;7.202;2024-03-17T00:24:57;2.80;91.50
16627;DHT22;8427;52.204;7.202;2024-03-17T00:27:24;2.90;91.40
16627;DHT22;8427;52.204;7.202;2024-03-17T00:29:50;2.90;91.40
16627;DHT22;8427;52.204;7.202;2024-03-17T00:32:17;2.90;91.40
16627;DHT22;8427;52.204;7.202;2024-03-17T00:34:43;2.80;91.30
16627;DHT22;8427;52.204;7.202;2024-03-17T00:37:11;2.80;91.40
16627;DHT22;8427;52.204;7.202;2024-03-17T00:39:36;3.00;91.40
16627;DHT22;8427;52.204;7.202;2024-03-17T00:42:05;3.00;91.30
16627;DHT22;8427;52.204;7.202;2024-03-17T00:44:31;2.90;91.50
16627;DHT22;8427;52.204;7.202;2024-03-17T00:46:58;2.70;91.60
16627;DHT22;8427;52.204;7.202;2024-03-17T00:49:24;2.90;91.60
16627;DHT22;8427;52.204;7.202;2024-03-17T00:51:51;2.60;91.70
16627;DHT22;8427;52.204;7.202;2024-03-17T00:54:17;2.80;91.70
16627;DHT22;8427;52.204;7.202;2024-03-17T00:56:44;2.90;91.60
16627;DHT22;8427;52.204;7.202;2024-03-17T00:59:12;2.80;91.80
16627;DHT22;8427;52.204;7.202;2024-03-17T01:01:39;2.80;91.80
16627;DHT22;8427;52.204;7.202;2024-03-17T01:04:05;2.80;91.40
16627;DHT22;8427;52.204;7.202;2024-03-17T01:06:32;2.60;91.30
16627;DHT22;8427;52.204;7.202;2024-03-17T01:08:58;2.60;91.30
16627;DHT22;8427;52.204;7.202;2024-03-17T01:11:25;2.50;91.60
16627;DHT22;8427;52.204;7.202;2024-03-17T01:13:51;2.70;91.70
16627;DHT22;8427;52.204;7.202;2024-03-17T01:16:19;2.60;92.00
16627;DHT22;8427;52.204;7.202;2024-03-17T01:18:45;2.60;91.80
16627;DHT22;8427;52.204;7.202;2024-03-17T01:21:13;2.50;91.70
16627;DHT22;8427;52.204;7.202;2024-03-17T01:23:39;2.90;91.70
16627;DHT22;8427;52.204;7.202;2024-03-17T01:26:06;2.60;91.70
16627;DHT22;8427;52.204;7.202;2024-03-17T01:28:31;2.70;91.80
16627;DHT22;8427;52.204;7.202;2024-03-17T01:30:59;2.50;91.70
16627;DHT22;8427;52.204;7.202;2024-03-17T01:33:26;2.40;91.80
16627;DHT22;8427;52.204;7.202;2024-03-17T01:35:53;2.30;91.80
16627;DHT22;8427;52.204;7.202;2024-03-17T01:38:19;2.40;91.80
16627;DHT22;8427;52.204;7.202;2024-03-17T01:40:46;2.50;91.90
16627;DHT22;8427;52.204;7.202;2024-03-17T01:43:12;2.40;91.90
16627;DHT22;8427;52.204;7.202;2024-03-17T01:45:39;2.60;91.90
16627;DHT22;8427;52.204;7.202;2024-03-17T01:48:13;2.30;91.90
16627;DHT22;8427;52.204;7.202;2024-03-17T01:50:42;2.30;91.90
16627;DHT22;8427;52.204;7.202;2024-03-17T01:53:09;2.50;91.80
16627;DHT22;8427;52.204;7.202;2024-03-17T01:55:38;2.60;92.00
16627;DHT22;8427;52.204;7.202;2024-03-17T01:58:04;2.40;91.70
16627;DHT22;8427;52.204;7.202;2024-03-17T02:00:33;2.50;91.90
16627;DHT22;8427;52.204;7.202;2024-03-17T02:03:01;2.40;91.80
16627;DHT22;8427;52.204;7.202;2024-03-17T02:05:29;2.30;91.80
16627;DHT22;8427;52.204;7.202;2024-03-17T02:07:56;2.30;91.90
16627;DHT22;8427;52.204;7.202;2024-03-17T02:10:23;2.20;92.00
16627;DHT22;8427;52.204;7.202;2024-03-17T02:12:51;2.20;92.10
16627;DHT22;8427;52.204;7.202;2024-03-17T02:15:18;2.30;92.20
16627;DHT22;8427;52.204;7.202;2024-03-17T02:17:44;2.10;92.10
16627;DHT22;8427;52.204;7.202;2024-03-17T02:20:11;2.10;92.20
16627;DHT22;8427;52.204;7.202;2024-03-17T02:22:38;2.00;92.20
16627;DHT22;8427;52.204;7.202;2024-03-17T02:25:05;2.20;92.20
16627;DHT22;8427;52.204;7.202;2024-03-17T02:27:34;2.20;92.10
16627;DHT22;8427;52.204;7.202;2024-03-17T02:30:01;2.00;91.90
16627;DHT22;8427;52.204;7.202;2024-03-17T02:32:27;2.00;92.00
16627;DHT22;8427;52.204;7.202;2024-03-17T02:34:54;2.10;92.10
16627;DHT22;8427;52.204;7.202;2024-03-17T02:37:20;2.00;91.80
16627;DHT22;8427;52.204;7.202;2024-03-17T02:39:48;2.00;92.10
16627;DHT22;8427;52.204;7.202;2024-03-17T02:42:15;1.90;92.30
16627;DHT22;8427;52.204;7.202;2024-03-17T02:44:42;2.00;92.20
16627;DHT22;8427;52.204;7.202;2024-03-17T02:47:08;1.70;92.20
16627;DHT22;8427;52.204;7.202;2024-03-17T02:49:36;1.90;92.20
16627;DHT22;8427;52.204;7.202;2024-03-17T02:52:06;1.70;92.50
16627;DHT22;8427;52.204;7.202;2024-03-17T02:54:33;1.70;92.40
16627;DHT22;8427;52.204;7.202;2024-03-17T02:57:02;1.70;92.50
16627;DHT22;8427;52.204;7.202;2024-03-17T02:59:29;1.70;92.30
16627;DHT22;8427;52.204;7.202;2024-03-17T03:01:56;1.60;92.50
16627;DHT22;8427;52.204;7.202;2024-03-17T03:04:23;1.80;92.30
16627;DHT22;8427;52.204;7.202;2024-03-17T03:06:50;1.70;92.30
16627;DHT22;8427;52.204;7.202;2024-03-17T03:09:17;1.60;92.50
16627;DHT22;8427;52.204;7.202;2024-03-17T03:11:51;1.70;92.40
16627;DHT22;8427;52.204;7.202;2024-03-17T03:14:20;1.70;92.70
16627;DHT22;8427;52.204;7.202;2024-03-17T03:16:47;1.60;92.80
16627;DHT22;8427;52.204;7.202;2024-03-17T03:19:15;1.90;92.70
16627;DHT22;8427;52.204;7.202;2024-03-17T03:21:42;1.80;92.80
16627;DHT22;8427;52.204;7.202;2024-03-17T03:24:09;1.70;92.70
16627;DHT22;8427;52.204;7.202;2024-03-17T03:26:36;1.70;92.80
16627;DHT22;8427;52.204;7.202;2024-03-17T03:29:03;1.70;92.80
16627;DHT22;8427;52.204;7.202;2024-03-17T03:31:32;1.60;92.70
16627;DHT22;8427;52.204;7.202;2024-03-17T03:33:59;1.80;92.80
16627;DHT22;8427;52.204;7.202;2024-03-17T03:36:27;1.70;92.70
16627;DHT22;8427;52.204;7.202;2024-03-17T03:38:54;1.70;92.70
16627;DHT22;8427;52.204;7.202;2024-03-17T03:41:22;1.70;92.60
16627;DHT22;8427;52.204;7.202;2024-03-17T03:43:50;1.60;92.70
16627;DHT22;8427;52.204;7.202;2024-03-17T03:46:17;1.60;92.70
16627;DHT22;8427;52.204;7.202;2024-03-17T03:48:45;1.80;92.70
16627;DHT22;8427;52.204;7.202;2024-03-17T03:51:13;1.50;92.90
16627;DHT22;8427;52.204;7.202;2024-03-17T03:53:40;1.70;92.90
16627;DHT22;8427;52.204;7.202;2024-03-17T03:56:08;1.70;92.90
16627;DHT22;8427;52.204;7.202;2024-03-17T03:58:36;1.70;92.90
16627;DHT22;8427;52.204;7.202;2024-03-17T04:01:03;1.60;92.80
16627;DHT22;8427;52.204;7.202;2024-03-17T04:03:31;1.60;92.90
16627;DHT22;8427;52.204;7.202;2024-03-17T04:06:04;1.80;92.80
16627;DHT22;8427;52.204;7.202;2024-03-17T04:08:31;1.70;92.90
16627;DHT22;8427;52.204;7.202;2024-03-17T04:10:58;1.70;92.90
16627;DHT22;8427;52.204;7.202;2024-03-17T04:13:26;1.60;93.00
16627;DHT22;8427;52.204;7.202;2024-03-17T04:15:55;1.70;92.90
16627;DHT22;8427;52.204;7.202;2024-03-17T04:18:22;1.70;92.90
16627;DHT22;8427;52.204;7.202;2024-03-17T04:20:50;1.60;93.00
16627;DHT22;8427;52.204;7.202;2024-03-17T04:23:20;1.90;93.20
16627;DHT22;8427;52.204;7.202;2024-03-17T04:25:47;1.80;93.10
16627;DHT22;8427;52.204;7.202;2024-03-17T04:28:14;1.70;93.20
16627;DHT22;8427;52.204;7.202;2024-03-17T04:30:42;1.70;93.10
16627;DHT22;8427;52.204;7.202;2024-03-17T04:33:09;1.90;92.90
16627;DHT22;8427;52.204;7.202;2024-03-17T04:35:37;2.00;93.10
16627;DHT22;8427;52.204;7.202;2024-03-17T04:38:04;1.90;93.00
16627;DHT22;8427;52.204;7.202;2024-03-17T04:40:33;1.90;92.90
16627;DHT22;8427;52.204;7.202;2024-03-17T04:43:01;1.70;92.70
16627;DHT22;8427;52.204;7.202;2024-03-17T04:45:28;1.80;92.70
16627;DHT22;8427;52.204;7.202;2024-03-17T04:47:54;1.80;92.70
16627;DHT22;8427;52.204;7.202;2024-03-17T04:50:21;1.70;92.70
16627;DHT22;8427;52.204;7.202;2024-03-17T04:52:49;1.70;92.70
16627;DHT22;8427;52.204;7.202;2024-03-17T04:55:16;1.90;92.70
16627;DHT22;8427;52.204;7.202;2024-03-17T04:57:45;1.80;92.60
16627;DHT22;8427;52.204;7.202;2024-03-17T05:00:12;1.70;92.70
16627;DHT22;8427;52.204;7.202;2024-03-17T05:02:39;1.80;92.70
16627;DHT22;8427;52.204;7.202;2024-03-17T05:05:07;1.90;92.90
16627;DHT22;8427;52.204;7.202;2024-03-17T05:07:36;2.10;92.80
16627;DHT22;8427;52.204;7.202;2024-03-17T05:10:04;2.00;92.80
16627;DHT22;8427;52.204;7.202;2024-03-17T05:12:31;2.00;92.90
16627;DHT22;8427;52.204;7.202;2024-03-17T05:14:59;2.00;92.90
16627;DHT22;8427;52.204;7.202;2024-03-17T05:17:27;1.90;93.00
16627;DHT22;8427;52.204;7.202;2024-03-17T05:19:54;2.10;93.10
16627;DHT22;8427;52.204;7.202;2024-03-17T05:22:20;1.90;93.10
16627;DHT22;8427;52.204;7.202;2024-03-17T05:24:47;1.90;93.10
16627;DHT22;8427;52.204;7.202;2024-03-17T05:27:15;2.10;93.20
16627;DHT22;8427;52.204;7.202;2024-03-17T05:29:42;2.10;93.30
16627;DHT22;8427;52.204;7.202;2024-03-17T05:32:10;2.00;93.40
16627;DHT22;8427;52.204;7.202;2024-03-17T05:34:37;2.00;93.50
16627;DHT22;8427;52.204;7.202;2024-03-17T05:37:04;2.10;93.60
16627;DHT22;8427;52.204;7.202;2024-03-17T05:39:31;2.00;93.60
16627;DHT22;8427;52.204;7.202;2024-03-17T05:41:58;2.00;93.50
16627;DHT22;8427;52.204;7.202;2024-03-17T05:44:25;2.20;93.50
16627;DHT22;8427;52.204;7.202;2024-03-17T05:46:55;2.10;93.30
16627;DHT22;8427;52.204;7.202;2024-03-17T05:49:25;2.40;93.40
16627;DHT22;8427;52.204;7.202;2024-03-17T05:51:51;2.10;93.40
16627;DHT22;8427;52.204;7.202;2024-03-17T05:54:19;2.10;93.30
16627;DHT22;8427;52.204;7.202;2024-03-17T05:56:46;2.20;93.40
16627;DHT22;8427;52.204;7.202;2024-03-17T05:59:13;2.10;93.30
16627;DHT22;8427;52.204;7.202;2024-03-17T06:01:40;2.10;93.40
16627;DHT22;8427;52.204;7.202;2024-03-17T06:04:07;2.20;93.40
16627;DHT22;8427;52.204;7.202;2024-03-17T06:06:36;2.20;93.60
16627;DHT22;8427;52.204;7.202;2024-03-17T06:09:04;2.30;93.70
16627;DHT22;8427;52.204;7.202;2024-03-17T06:11:34;2.30;93.80
16627;DHT22;8427;52.204;7.202;2024-03-17T06:14:02;2.70;93.90
16627;DHT22;8427;52.204;7.202;2024-03-17T06:16:31;2.70;93.80
16627;DHT22;8427;52.204;7.202;2024-03-17T06:18:59;2.60;93.80
16627;DHT22;8427;52.204;7.202;2024-03-17T06:21:26;2.80;93.80
16627;DHT22;8427;52.204;7.202;2024-03-17T06:23:54;3.10;93.60
16627;DHT22;8427;52.204;7.202;2024-03-17T06:26:22;2.90;93.50
16627;DHT22;8427;52.204;7.202;2024-03-17T06:28:49;2.80;93.50
16627;DHT22;8427;52.204;7.202;2024-03-17T06:31:15;2.90;93.50
16627;DHT22;8427;52.204;7.202;2024-03-17T06:33:42;3.10;93.60
16627;DHT22;8427;52.204;7.202;2024-03-17T06:36:09;3.10;93.50
16627;DHT22;8427;52.204;7.202;2024-03-17T06:38:35;3.10;93.40
16627;DHT22;8427;52.204;7.202;2024-03-17T06:41:04;3.10;93.10
16627;DHT22;8427;52.204;7.202;2024-03-17T06:43:30;3.30;92.90
16627;DHT22;8427;52.204;7.202;2024-03-17T06:45:58;3.50;93.00
16627;DHT22;8427;52.204;7.202;2024-03-17T06:48:26;3.50;92.90
16627;DHT22;8427;52.204;7.202;2024-03-17T06:50:53;3.60;92.60
16627;DHT22;8427;52.204;7.202;2024-03-17T06:53:20;3.70;92.50
16627;DHT22;8427;52.204;7.202;2024-03-17T06:55:54;3.90;92.10
16627;DHT22;8427;52.204;7.202;2024-03-17T06:58:22;3.90;91.90
16627;DHT22;8427;52.204;7.202;2024-03-17T07:00:53;4.00;91.50
16627;DHT22;8427;52.204;7.202;2024-03-17T07:03:20;3.90;90.80
16627;DHT22;8427;52.204;7.202;2024-03-17T07:05:51;4.20;90.70
16627;DHT22;8427;52.204;7.202;2024-03-17T07:08:18;4.10;90.50
16627;DHT22;8427;52.204;7.202;2024-03-17T07:10:54;4.00;89.90
16627;DHT22;8427;52.204;7.202;2024-03-17T07:13:22;4.50;89.50
16627;DHT22;8427;52.204;7.202;2024-03-17T07:15:49;4.50;89.70
16627;DHT22;8427;52.204;7.202;2024-03-17T07:18:16;4.50;89.00
16627;DHT22;8427;52.204;7.202;2024-03-17T07:20:43;4.60;89.00
16627;DHT22;8427;52.204;7.202;2024-03-17T07:23:12;4.70;88.80
16627;DHT22;8427;52.204;7.202;2024-03-17T07:25:39;4.50;88.60
16627;DHT22;8427;52.204;7.202;2024-03-17T07:28:05;5.00;87.70
16627;DHT22;8427;52.204;7.202;2024-03-17T07:30:34;4.90;87.30
16627;DHT22;8427;52.204;7.202;2024-03-17T07:33:01;5.00;86.90
16627;DHT22;8427;52.204;7.202;2024-03-17T07:35:28;5.20;86.80
16627;DHT22;8427;52.204;7.202;2024-03-17T07:37:55;5.20;86.70
16627;DHT22;8427;52.204;7.202;2024-03-17T07:40:21;5.20;85.90
16627;DHT22;8427;52.204;7.202;2024-03-17T07:42:49;5.40;85.50
16627;DHT22;8427;52.204;7.202;2024-03-17T07:45:15;5.30;85.40
16627;DHT22;8427;52.204;7.202;2024-03-17T07:47:45;5.30;84.50
16627;DHT22;8427;52.204;7.202;2024-03-17T07:50:12;5.50;84.70
16627;DHT22;8427;52.204;7.202;2024-03-17T07:52:39;5.60;85.10
16627;DHT22;8427;52.204;7.202;2024-03-17T07:55:06;5.50;84.90
16627;DHT22;8427;52.204;7.202;2024-03-17T07:57:35;5.70;84.50
16627;DHT22;8427;52.204;7.202;2024-03-17T08:00:02;6.00;84.00
16627;DHT22;8427;52.204;7.202;2024-03-17T08:02:29;6.10;83.80
16627;DHT22;8427;52.204;7.202;2024-03-17T08:04:58;6.10;83.10
16627;DHT22;8427;52.204;7.202;2024-03-17T08:07:24;6.30;83.20
16627;DHT22;8427;52.204;7.202;2024-03-17T08:09:51;6.60;82.90
16627;DHT22;8427;52.204;7.202;2024-03-17T08:12:18;6.60;81.70
16627;DHT22;8427;52.204;7.202;2024-03-17T08:14:44;6.80;81.70
16627;DHT22;8427;52.204;7.202;2024-03-17T08:17:11;7.10;81.10
16627;DHT22;8427;52.204;7.202;2024-03-17T08:19:38;7.60;80.70
16627;DHT22;8427;52.204;7.202;2024-03-17T08:22:08;7.80;79.10
16627;DHT22;8427;52.204;7.202;2024-03-17T08:24:35;7.90;78.90
16627;DHT22;8427;52.204;7.202;2024-03-17T08:27:02;8.20;77.90
16627;DHT22;8427;52.204;7.202;2024-03-17T08:29:29;8.50;76.10
16627;DHT22;8427;52.204;7.202;2024-03-17T08:31:56;8.40;76.70
16627;DHT22;8427;52.204;7.202;2024-03-17T08:34:23;8.70;74.80
16627;DHT22;8427;52.204;7.202;2024-03-17T08:36:50;8.90;74.80
16627;DHT22;8427;52.204;7.202;2024-03-17T08:39:18;8.90;73.00
16627;DHT22;8427;52.204;7.202;2024-03-17T08:41:45;9.20;73.00
16627;DHT22;8427;52.204;7.202;2024-03-17T08:44:12;9.40;72.60
16627;DHT22;8427;52.204;7.202;2024-03-17T08:46:39;9.60;70.90
16627;DHT22;8427;52.204;7.202;2024-03-17T08:49:05;9.60;71.60
16627;DHT22;8427;52.204;7.202;2024-03-17T08:51:32;9.60;71.00
16627;DHT22;8427;52.204;7.202;2024-03-17T08:53:59;9.80;71.10
16627;DHT22;8427;52.204;7.202;2024-03-17T08:56:27;9.70;70.80
16627;DHT22;8427;52.204;7.202;2024-03-17T08:58:54;9.70;71.40
16627;DHT22;8427;52.204;7.202;2024-03-17T09:01:22;10.00;70.90
16627;DHT22;8427;52.204;7.202;2024-03-17T09:03:49;9.80;72.00
16627;DHT22;8427;52.204;7.202;2024-03-17T09:06:18;9.90;70.50
16627;DHT22;8427;52.204;7.202;2024-03-17T09:08:46;10.10;70.80
16627;DHT22;8427;52.204;7.202;2024-03-17T09:11:13;10.20;69.60
16627;DHT22;8427;52.204;7.202;2024-03-17T09:13:41;10.20;70.00
16627;DHT22;8427;52.204;7.202;2024-03-17T09:16:08;10.10;69.10
16627;DHT22;8427;52.204;7.202;2024-03-17T09:18:37;10.10;68.40
16627;DHT22;8427;52.204;7.202;2024-03-17T09:21:05;10.20;69.90
16627;DHT22;8427;52.204;7.202;2024-03-17T09:23:33;10.50;69.40
16627;DHT22;8427;52.204;7.202;2024-03-17T09:26:01;10.50;68.70
16627;DHT22;8427;52.204;7.202;2024-03-17T09:28:28;10.40;68.60
16627;DHT22;8427;52.204;7.202;2024-03-17T09:30:57;10.50;68.60
16627;DHT22;8427;52.204;7.202;2024-03-17T09:33:24;10.40;68.10
16627;DHT22;8427;52.204;7.202;2024-03-17T09:35:55;10.40;67.80
16627;DHT22;8427;52.204;7.202;2024-03-17T09:38:22;10.50;67.40
16627;DHT22;8427;52.204;7.202;2024-03-17T09:40:49;10.60;67.80
16627;DHT22;8427;52.204;7.202;2024-03-17T09:43:19;10.70;66.90
16627;DHT22;8427;52.204;7.202;2024-03-17T09:45:46;10.70;67.00
16627;DHT22;8427;52.204;7.202;2024-03-17T09:48:15;10.70;67.70
16627;DHT22;8427;52.204;7.202;2024-03-17T09:50:44;10.70;67.20
16627;DHT22;8427;52.204;7.202;2024-03-17T09:53:14;10.40;66.80
16627;DHT22;8427;52.204;7.202;2024-03-17T09:55:42;10.40;68.00
16627;DHT22;8427;52.204;7.202;2024-03-17T09:58:10;10.40;67.20
16627;DHT22;8427;52.204;7.202;2024-03-17T10:00:41;10.30;67.60
16627;DHT22;8427;52.204;7.202;2024-03-17T10:03:07;10.30;67.90
16627;DHT22;8427;52.204;7.202;2024-03-17T10:05:36;10.00;67.50
16627;DHT22;8427;52.204;7.202;2024-03-17T10:08:03;10.10;68.80
16627;DHT22;8427;52.204;7.202;2024-03-17T10:10:30;10.10;69.50
16627;DHT22;8427;52.204;7.202;2024-03-17T10:12:57;10.00;68.80
16627;DHT22;8427;52.204;7.202;2024-03-17T10:15:24;10.00;68.90
16627;DHT22;8427;52.204;7.202;2024-03-17T10:17:51;10.20;68.00
16627;DHT22;8427;52.204;7.202;2024-03-17T10:20:18;10.20;68.40
16627;DHT22;8427;52.204;7.202;2024-03-17T10:23:00;10.20;67.10
16627;DHT22;8427;52.204;7.202;2024-03-17T10:25:26;10.30;68.30
16627;DHT22;8427;52.204;7.202;2024-03-17T10:27:54;10.30;68.80
16627;DHT22;8427;52.204;7.202;2024-03-17T10:30:22;10.40;66.00
16627;DHT22;8427;52.204;7.202;2024-03-17T10:32:52;10.50;66.10
16627;DHT22;8427;52.204;7.202;2024-03-17T10:35:26;10.80;64.70
16627;DHT22;8427;52.204;7.202;2024-03-17T10:37:53;11.10;65.70
16627;DHT22;8427;52.204;7.202;2024-03-17T10:40:22;11.20;64.70
16627;DHT22;8427;52.204;7.202;2024-03-17T10:42:50;11.40;64.70
16627;DHT22;8427;52.204;7.202;2024-03-17T10:45:17;11.60;63.50
16627;DHT22;8427;52.204;7.202;2024-03-17T10:47:47;11.90;63.70
16627;DHT22;8427;52.204;7.202;2024-03-17T10:50:19;12.40;61.60
16627;DHT22;8427;52.204;7.202;2024-03-17T10:52:46;12.60;61.10
16627;DHT22;8427;52.204;7.202;2024-03-17T10:55:23;12.80;59.70
16627;DHT22;8427;52.204;7.202;2024-03-17T10:57:51;12.80;58.80
16627;DHT22;8427;52.204;7.202;2024-03-17T11:00:19;12.40;57.70
16627;DHT22;8427;52.204;7.202;2024-03-17T11:02:47;12.40;58.90
16627;DHT22;8427;52.204;7.202;2024-03-17T11:05:15;12.40;57.90
16627;DHT22;8427;52.204;7.202;2024-03-17T11:07:43;12.60;58.40
16627;DHT22;8427;52.204;7.202;2024-03-17T11:10:20;12.70;59.00
16627;DHT22;8427;52.204;7.202;2024-03-17T11:12:49;12.70;59.40
16627;DHT22;8427;52.204;7.202;2024-03-17T11:15:35;12.80;58.40
16627;DHT22;8427;52.204;7.202;2024-03-17T11:20:58;12.90;58.20
16627;DHT22;8427;52.204;7.202;2024-03-17T11:23:27;12.70;57.20
16627;DHT22;8427;52.204;7.202;2024-03-17T11:25:55;12.90;58.20
16627;DHT22;8427;52.204;7.202;2024-03-17T11:33:51;13.50;56.30
16627;DHT22;8427;52.204;7.202;2024-03-17T11:36:35;13.60;54.70
16627;DHT22;8427;52.204;7.202;2024-03-17T11:39:04;13.80;53.90
16627;DHT22;8427;52.204;7.202;2024-03-17T11:41:38;13.90;55.10
16627;DHT22;8427;52.204;7.202;2024-03-17T11:44:15;13.90;54.90
16627;DHT22;8427;52.204;7.202;2024-03-17T11:46:42;13.80;53.90
16627;DHT22;8427;52.204;7.202;2024-03-17T11:49:16;13.80;55.30
16627;DHT22;8427;52.204;7.202;2024-03-17T11:51:42;13.80;54.60
16627;DHT22;8427;52.204;7.202;2024-03-17T11:54:10;13.70;53.90
16627;DHT22;8427;52.204;7.202;2024-03-17T11:56:38;13.60;53.50
16627;DHT22;8427;52.204;7.202;2024-03-17T11:59:06;13.40;54.10
16627;DHT22;8427;52.204;7.202;2024-03-17T12:01:34;13.30;54.80
16627;DHT22;8427;52.204;7.202;2024-03-17T12:04:01;13.40;53.80
16627;DHT22;8427;52.204;7.202;2024-03-17T12:06:32;13.20;57.30
16627;DHT22;8427;52.204;7.202;2024-03-17T12:09:09;13.00;55.80
16627;DHT22;8427;52.204;7.202;2024-03-17T12:11:35;13.00;57.50
16627;DHT22;8427;52.204;7.202;2024-03-17T12:14:15;12.90;56.40
16627;DHT22;8427;52.204;7.202;2024-03-17T12:16:48;12.80;56.80
16627;DHT22;8427;52.204;7.202;2024-03-17T12:19:15;13.00;56.30
16627;DHT22;8427;52.204;7.202;2024-03-17T12:21:44;13.00;54.70
16627;DHT22;8427;52.204;7.202;2024-03-17T12:24:16;13.10;57.10
16627;DHT22;8427;52.204;7.202;2024-03-17T12:26:43;13.20;55.20
16627;DHT22;8427;52.204;7.202;2024-03-17T12:29:23;13.20;55.00
16627;DHT22;8427;52.204;7.202;2024-03-17T12:31:50;13.20;55.00
16627;DHT22;8427;52.204;7.202;2024-03-17T12:34:18;13.10;55.20
16627;DHT22;8427;52.204;7.202;2024-03-17T12:36:46;13.00;56.10
16627;DHT22;8427;52.204;7.202;2024-03-17T12:39:19;13.20;55.30
16627;DHT22;8427;52.204;7.202;2024-03-17T12:42:00;13.10;55.70
16627;DHT22;8427;52.204;7.202;2024-03-17T12:44:27;13.30;55.20
16627;DHT22;8427;52.204;7.202;2024-03-17T12:46:56;13.20;55.60
16627;DHT22;8427;52.204;7.202;2024-03-17T12:49:26;13.20;54.90
16627;DHT22;8427;52.204;7.202;2024-03-17T12:51:53;13.20;53.70
16627;DHT22;8427;52.204;7.202;2024-03-17T12:54:21;13.30;54.10
16627;DHT22;8427;52.204;7.202;2024-03-17T12:56:49;13.50;55.20
16627;DHT22;8427;52.204;7.202;2024-03-17T12:59:37;13.40;54.30
16627;DHT22;8427;52.204;7.202;2024-03-17T13:02:40;13.40;54.80
16627;DHT22;8427;52.204;7.202;2024-03-17T13:05:10;13.60;54.50
16627;DHT22;8427;52.204;7.202;2024-03-17T13:07:41;13.60;55.70
16627;DHT22;8427;52.204;7.202;2024-03-17T13:10:08;13.50;55.30
16627;DHT22;8427;52.204;7.202;2024-03-17T13:12:36;13.60;54.40
16627;DHT22;8427;52.204;7.202;2024-03-17T13:15:03;13.70;53.60
16627;DHT22;8427;52.204;7.202;2024-03-17T13:17:30;13.70;53.40
16627;DHT22;8427;52.204;7.202;2024-03-17T13:19:59;13.80;52.70
16627;DHT22;8427;52.204;7.202;2024-03-17T13:22:26;13.60;53.80
16627;DHT22;8427;52.204;7.202;2024-03-17T13:24:54;13.70;53.30
16627;DHT22;8427;52.204;7.202;2024-03-17T13:27:21;13.70;53.50
16627;DHT22;8427;52.204;7.202;2024-03-17T13:29:48;13.70;53.10
16627;DHT22;8427;52.204;7.202;2024-03-17T13:32:15;13.60;52.90
16627;DHT22;8427;52.204;7.202;2024-03-17T13:34:42;13.50;53.70
16627;DHT22;8427;52.204;7.202;2024-03-17T13:37:09;13.60;54.10
16627;DHT22;8427;52.204;7.202;2024-03-17T13:39:36;13.60;53.30
16627;DHT22;8427;52.204;7.202;2024-03-17T13:42:05;13.70;53.40
16627;DHT22;8427;52.204;7.202;2024-03-17T13:44:33;13.70;53.60
16627;DHT22;8427;52.204;7.202;2024-03-17T13:47:00;13.80;52.80
16627;DHT22;8427;52.204;7.202;2024-03-17T13:49:29;13.70;54.20
16627;DHT22;8427;52.204;7.202;2024-03-17T13:51:56;13.90;54.40
16627;DHT22;8427;52.204;7.202;2024-03-17T13:54:23;14.00;53.60
16627;DHT22;8427;52.204;7.202;2024-03-17T13:56:50;13.90;53.60
16627;DHT22;8427;52.204;7.202;2024-03-17T13:59:18;13.90;54.10
16627;DHT22;8427;52.204;7.202;2024-03-17T14:01:45;13.90;53.70
16627;DHT22;8427;52.204;7.202;2024-03-17T14:04:14;14.00;53.80
16627;DHT22;8427;52.204;7.202;2024-03-17T14:06:41;14.00;53.90
16627;DHT22;8427;52.204;7.202;2024-03-17T14:09:08;13.80;53.50
16627;DHT22;8427;52.204;7.202;2024-03-17T14:11:36;13.70;53.10
16627;DHT22;8427;52.204;7.202;2024-03-17T14:14:04;13.70;53.40
16627;DHT22;8427;52.204;7.202;2024-03-17T14:16:32;13.70;53.70
16627;DHT22;8427;52.204;7.202;2024-03-17T14:19:00;13.70;54.00
16627;DHT22;8427;52.204;7.202;2024-03-17T14:21:27;13.80;52.80
16627;DHT22;8427;52.204;7.202;2024-03-17T14:23:54;13.70;52.10
16627;DHT22;8427;52.204;7.202;2024-03-17T14:26:21;13.70;53.40
16627;DHT22;8427;52.204;7.202;2024-03-17T14:28:48;13.70;53.20
16627;DHT22;8427;52.204;7.202;2024-03-17T14:31:15;13.80;54.20
16627;DHT22;8427;52.204;7.202;2024-03-17T14:33:44;13.60;53.80
16627;DHT22;8427;52.204;7.202;2024-03-17T14:36:11;13.70;54.70
16627;DHT22;8427;52.204;7.202;2024-03-17T14:38:37;13.70;53.80
16627;DHT22;8427;52.204;7.202;2024-03-17T14:41:04;13.80;53.90
16627;DHT22;8427;52.204;7.202;2024-03-17T14:43:31;13.70;52.30
16627;DHT22;8427;52.204;7.202;2024-03-17T14:46:00;13.70;53.30
16627;DHT22;8427;52.204;7.202;2024-03-17T14:48:27;13.70;53.30
16627;DHT22;8427;52.204;7.202;2024-03-17T14:50:55;13.50;53.10
16627;DHT22;8427;52.204;7.202;2024-03-17T14:53:22;13.40;53.00
16627;DHT22;8427;52.204;7.202;2024-03-17T14:55:49;13.30;53.10
16627;DHT22;8427;52.204;7.202;2024-03-17T14:58:16;13.20;53.10
16627;DHT22;8427;52.204;7.202;2024-03-17T15:00:43;13.10;53.20
16627;DHT22;8427;52.204;7.202;2024-03-17T15:03:09;13.00;53.90
16627;DHT22;8427;52.204;7.202;2024-03-17T15:05:36;13.00;54.10
16627;DHT22;8427;52.204;7.202;2024-03-17T15:08:05;12.90;54.80
16627;DHT22;8427;52.204;7.202;2024-03-17T15:10:33;12.90;54.40
16627;DHT22;8427;52.204;7.202;2024-03-17T15:13:00;12.90;54.80
16627;DHT22;8427;52.204;7.202;2024-03-17T15:15:27;13.00;55.80
16627;DHT22;8427;52.204;7.202;2024-03-17T15:17:54;13.00;55.30
16627;DHT22;8427;52.204;7.202;2024-03-17T15:20:21;12.80;54.70
16627;DHT22;8427;52.204;7.202;2024-03-17T15:22:49;12.90;55.60
16627;DHT22;8427;52.204;7.202;2024-03-17T15:25:18;12.90;54.60
16627;DHT22;8427;52.204;7.202;2024-03-17T15:27:47;12.90;55.00
16627;DHT22;8427;52.204;7.202;2024-03-17T15:30:15;12.90;54.20
16627;DHT22;8427;52.204;7.202;2024-03-17T15:32:44;12.90;55.80
16627;DHT22;8427;52.204;7.202;2024-03-17T15:35:11;12.90;55.90
16627;DHT22;8427;52.204;7.202;2024-03-17T15:37:38;12.90;55.40
16627;DHT22;8427;52.204;7.202;2024-03-17T15:40:05;12.90;55.60
16627;DHT22;8427;52.204;7.202;2024-03-17T15:42:34;12.90;55.80
16627;DHT22;8427;52.204;7.202;2024-03-17T15:45:01;12.80;55.90
16627;DHT22;8427;52.204;7.202;2024-03-17T15:47:28;12.80;55.20
16627;DHT22;8427;52.204;7.202;2024-03-17T15:49:55;12.70;55.90
16627;DHT22;8427;52.204;7.202;2024-03-17T15:52:22;12.80;57.00
16627;DHT22;8427;52.204;7.202;2024-03-17T15:54:49;12.80;57.20
16627;DHT22;8427;52.204;7.202;2024-03-17T15:57:15;12.90;55.80
16627;DHT22;8427;52.204;7.202;2024-03-17T15:59:44;12.80;56.90
16627;DHT22;8427;52.204;7.202;2024-03-17T16:02:12;12.90;57.70
16627;DHT22;8427;52.204;7.202;2024-03-17T16:04:39;12.80;57.10
16627;DHT22;8427;52.204;7.202;2024-03-17T16:07:05;12.70;57.20